createdAt,value
2018-06-30T00:01:31.262Z,101768.27
2018-06-30T00:04:00.124Z,101770.14
2018-06-30T00:06:29.364Z,101773.67
2018-06-30T00:08:58.371Z,101773.19
2018-06-30T00:11:27.226Z,101763.72
2018-06-30T00:13:56.345Z,101774.05
2018-06-30T00:16:25.504Z,101772.70
2018-06-30T00:18:54.538Z,101773.08
2018-06-30T00:21:23.479Z,101770.38
2018-06-30T00:23:52.488Z,101773.08
2018-06-30T00:26:21.527Z,101770.38
2018-06-30T00:28:50.578Z,101771.72
2018-06-30T00:31:19.535Z,101769.02
2018-06-30T00:33:48.717Z,101773.94
2018-06-30T00:36:17.889Z,101775.78
2018-06-30T00:38:47.074Z,101775.78
2018-06-30T00:41:16.653Z,101776.64
2018-06-30T00:43:45.647Z,101776.64
2018-06-30T00:46:14.711Z,101775.78
2018-06-30T00:48:43.752Z,101783.03
2018-06-30T00:51:12.841Z,101778.48
2018-06-30T00:53:41.901Z,101776.75
2018-06-30T00:56:10.842Z,101782.16
2018-06-30T00:58:40.105Z,101778.59
2018-06-30T01:01:09.829Z,101784.00
2018-06-30T01:03:39.056Z,101789.06
2018-06-30T01:06:08.207Z,101785.49
2018-06-30T01:08:37.301Z,101786.36
2018-06-30T01:11:06.239Z,101786.84
2018-06-30T01:13:35.143Z,101784.14
2018-06-30T01:16:04.231Z,101785.49
2018-06-30T01:18:33.410Z,101787.71
2018-06-30T01:21:02.484Z,101790.90
2018-06-30T01:23:31.401Z,101783.77
2018-06-30T01:26:00.240Z,101787.33
2018-06-30T01:28:29.197Z,101786.13
2018-06-30T01:30:58.168Z,101780.71
2018-06-30T01:33:27.239Z,101786.13
2018-06-30T01:35:56.098Z,101787.96
2018-06-30T01:38:25.282Z,101793.37
2018-06-30T01:40:54.363Z,101790.77
2018-06-30T01:43:23.148Z,101791.78
2018-06-30T01:45:52.039Z,101791.29
2018-06-30T01:48:20.995Z,101789.56
2018-06-30T01:50:49.972Z,101791.78
2018-06-30T01:53:18.987Z,101792.27
2018-06-30T01:55:47.784Z,101797.19
2018-06-30T01:58:17.643Z,101788.21
2018-06-30T02:00:46.569Z,101791.29
2018-06-30T02:03:15.433Z,101790.42
2018-06-30T02:05:44.362Z,101789.56
2018-06-30T02:08:13.406Z,101792.98
2018-06-30T02:10:42.453Z,101783.67
2018-06-30T02:13:11.441Z,101786.72
2018-06-30T02:15:40.388Z,101787.58
2018-06-30T02:18:09.537Z,101788.93
2018-06-30T02:20:38.470Z,101781.31
2018-06-30T02:23:07.377Z,101792.98
2018-06-30T02:25:36.463Z,101791.64
2018-06-30T02:28:05.368Z,101795.69
2018-06-30T02:30:34.151Z,101791.64
2018-06-30T02:33:03.164Z,101786.61
2018-06-30T02:35:32.236Z,101785.74
2018-06-30T02:38:01.278Z,101797.77
2018-06-30T02:40:30.321Z,101802.92
2018-06-30T02:42:59.175Z,101800.98
2018-06-30T02:45:28.210Z,101796.05
2018-06-30T02:47:57.213Z,101795.43
2018-06-30T02:50:26.147Z,101797.02
2018-06-30T02:52:55.067Z,101798.60
2018-06-30T02:55:24.406Z,101797.11
2018-06-30T02:57:53.442Z,101743.62
2018-06-30T03:00:22.530Z,101793.18
2018-06-30T03:02:51.691Z,101790.86
2018-06-30T03:05:20.538Z,101788.50
2018-06-30T03:07:49.425Z,101793.27
2018-06-30T03:10:18.260Z,101792.70
2018-06-30T03:12:47.120Z,101799.33
2018-06-30T03:15:16.089Z,101789.37
2018-06-30T03:17:45.089Z,101791.94
2018-06-30T03:20:13.977Z,101798.45
2018-06-30T03:22:42.829Z,101800.17
2018-06-30T03:25:11.962Z,101802.73
2018-06-30T03:27:40.920Z,101800.75
2018-06-30T03:30:09.958Z,101805.56
2018-06-30T03:32:38.801Z,101804.07
2018-06-30T03:35:07.590Z,101795.32
2018-06-30T03:37:36.555Z,101802.31
2018-06-30T03:40:05.568Z,101806.61
2018-06-30T03:42:34.477Z,101801.58
2018-06-30T03:45:03.602Z,101809.06
2018-06-30T03:47:32.618Z,101761.09
2018-06-30T03:50:01.575Z,101800.31
2018-06-30T03:52:30.688Z,101804.11
2018-06-30T03:54:59.755Z,101811.59
2018-06-30T03:57:28.731Z,101810.48
2018-06-30T03:59:57.716Z,101812.20
2018-06-30T04:02:27.222Z,101813.79
2018-06-30T04:04:56.269Z,101817.70
2018-06-30T04:07:25.286Z,101813.53
2018-06-30T04:09:54.222Z,101812.41
2018-06-30T04:12:22.967Z,101819.55
2018-06-30T04:14:51.854Z,101825.54
2018-06-30T04:17:20.857Z,101816.45
2018-06-30T04:19:49.980Z,101820.84
2018-06-30T04:22:18.825Z,101816.19
2018-06-30T04:24:47.934Z,101822.66
2018-06-30T04:27:16.979Z,101815.89
2018-06-30T04:29:45.943Z,101816.98
2018-06-30T04:32:15.017Z,101816.87
2018-06-30T04:34:43.851Z,101811.31
2018-06-30T04:37:12.991Z,101816.13
2018-06-30T04:39:41.884Z,101812.44
2018-06-30T04:42:10.930Z,101814.89
2018-06-30T04:44:39.793Z,101812.52
2018-06-30T04:47:08.915Z,101814.62
2018-06-30T04:49:37.994Z,101816.70
2018-06-30T04:52:06.931Z,101826.89
2018-06-30T04:54:35.889Z,101825.42
2018-06-30T04:57:05.474Z,101839.20
2018-06-30T04:59:34.451Z,101830.06
2018-06-30T05:02:03.577Z,101833.48
2018-06-30T05:04:33.144Z,101833.86
2018-06-30T05:07:02.102Z,101831.38
2018-06-30T05:09:31.112Z,101836.68
2018-06-30T05:12:00.099Z,101827.47
2018-06-30T05:14:29.053Z,101840.33
2018-06-30T05:16:58.113Z,101839.70
2018-06-30T05:19:26.980Z,101839.06
2018-06-30T05:21:55.997Z,101843.50
2018-06-30T05:24:24.915Z,101845.08
2018-06-30T05:26:53.915Z,101843.08
2018-06-30T05:29:22.806Z,101844.66
2018-06-30T05:31:51.806Z,101842.33
2018-06-30T05:34:20.705Z,101842.19
2018-06-30T05:36:49.738Z,101847.34
2018-06-30T05:39:18.667Z,101849.06
2018-06-30T05:41:47.737Z,101848.91
2018-06-30T05:44:16.867Z,101847.41
2018-06-30T05:46:45.924Z,101846.43
2018-06-30T05:49:14.892Z,101855.28
2018-06-30T05:51:43.995Z,101855.16
2018-06-30T05:54:12.903Z,101856.73
2018-06-30T05:56:42.005Z,101848.02
2018-06-30T05:59:10.945Z,101856.59
2018-06-30T06:01:39.898Z,101858.17
2018-06-30T06:04:08.936Z,101859.06
2018-06-30T06:06:38.037Z,101864.34
2018-06-30T06:09:09.627Z,101863.20
2018-06-30T06:11:38.617Z,101860.50
2018-06-30T06:14:08.570Z,101864.45
2018-06-30T06:16:37.912Z,101867.50
2018-06-30T06:19:07.710Z,101866.02
2018-06-30T06:21:36.731Z,101868.58
2018-06-30T06:24:06.022Z,101854.95
2018-06-30T06:26:34.931Z,101870.05
2018-06-30T06:29:04.251Z,101865.48
2018-06-30T06:31:33.491Z,101866.69
2018-06-30T06:34:02.545Z,101865.72
2018-06-30T06:36:31.475Z,101870.61
2018-06-30T06:39:00.572Z,101869.48
2018-06-30T06:41:29.622Z,101872.71
2018-06-30T06:43:58.696Z,101872.94
2018-06-30T06:46:27.610Z,101865.63
2018-06-30T06:48:56.582Z,101872.30
2018-06-30T06:51:25.354Z,101872.67
2018-06-30T06:53:54.284Z,101867.09
2018-06-30T06:56:23.391Z,101865.25
2018-06-30T06:58:52.271Z,101861.40
2018-06-30T07:01:21.274Z,101857.67
2018-06-30T07:03:50.521Z,101868.41
2018-06-30T07:06:19.629Z,101864.67
2018-06-30T07:08:48.557Z,101861.47
2018-06-30T07:11:17.555Z,101861.84
2018-06-30T07:13:46.599Z,101858.98
2018-06-30T07:16:15.805Z,101864.28
2018-06-30T07:18:44.929Z,101865.98
2018-06-30T07:21:13.901Z,101862.44
2018-06-30T07:23:42.895Z,101861.80
2018-06-30T07:26:11.890Z,101859.42
2018-06-30T07:28:41.016Z,101860.78
2018-06-30T07:31:10.354Z,101861.15
2018-06-30T07:33:39.371Z,101858.44
2018-06-30T07:36:08.324Z,101864.73
2018-06-30T07:38:37.432Z,101866.80
2018-06-30T07:41:06.634Z,101865.06
2018-06-30T07:43:35.709Z,101871.35
2018-06-30T07:46:04.701Z,101867.28
2018-06-30T07:48:34.570Z,101868.64
2018-06-30T07:51:04.681Z,101867.66
2018-06-30T07:53:33.646Z,101872.22
2018-06-30T07:56:02.733Z,101868.80
2018-06-30T07:58:31.875Z,101865.59
2018-06-30T08:01:00.863Z,101879.98
2018-06-30T08:03:29.867Z,101872.37
2018-06-30T08:05:58.937Z,101868.30
2018-06-30T08:08:28.297Z,101873.84
2018-06-30T08:10:57.321Z,101866.20
2018-06-30T08:13:26.246Z,101877.58
2018-06-30T08:15:55.401Z,101874.98
2018-06-30T08:18:24.445Z,101871.92
2018-06-30T08:20:53.676Z,101865.64
2018-06-30T08:23:23.059Z,101880.67
2018-06-30T08:25:52.205Z,101880.83
2018-06-30T08:28:21.467Z,101879.96
2018-06-30T08:30:50.587Z,101877.40
2018-06-30T08:33:19.840Z,101887.01
2018-06-30T08:35:49.060Z,101879.36
2018-06-30T08:38:18.017Z,101879.52
2018-06-30T08:40:46.968Z,101888.14
2018-06-30T08:43:16.102Z,101887.92
2018-06-30T08:45:45.375Z,101885.36
2018-06-30T08:48:14.364Z,101878.36
2018-06-30T08:50:43.473Z,101881.19
2018-06-30T08:53:12.607Z,101875.91
2018-06-30T08:55:41.582Z,101878.89
2018-06-30T08:58:10.618Z,101889.36
2018-06-30T09:00:39.789Z,101888.30
2018-06-30T09:03:09.064Z,101886.58
2018-06-30T09:05:38.049Z,101880.92
2018-06-30T09:08:07.191Z,101889.55
2018-06-30T09:10:36.368Z,101890.53
2018-06-30T09:13:05.346Z,101889.33
2018-06-30T09:15:35.263Z,101889.81
2018-06-30T09:18:04.419Z,101888.13
2018-06-30T09:20:33.470Z,101889.59
2018-06-30T09:23:03.617Z,101896.02
2018-06-30T09:25:32.487Z,101891.95
2018-06-30T09:28:01.223Z,101903.78
2018-06-30T09:30:30.348Z,101905.25
2018-06-30T09:32:59.204Z,101897.73
2018-06-30T09:35:28.032Z,101895.54
2018-06-30T09:37:56.828Z,101898.86
2018-06-30T09:40:25.650Z,101895.80
2018-06-30T09:42:54.406Z,101884.59
2018-06-30T09:45:24.204Z,101888.28
2018-06-30T09:47:53.277Z,101890.16
2018-06-30T09:50:22.046Z,101880.45
2018-06-30T09:52:50.842Z,101890.91
2018-06-30T09:55:19.653Z,101900.39
2018-06-30T09:57:48.517Z,101899.67
2018-06-30T10:00:22.545Z,101885.27
2018-06-30T10:02:51.411Z,101892.19
2018-06-30T10:05:20.409Z,101898.20
2018-06-30T10:07:49.207Z,101897.00
2018-06-30T10:10:17.966Z,101907.84
2018-06-30T10:12:46.925Z,101903.77
2018-06-30T10:15:15.757Z,101902.05
2018-06-30T10:17:44.691Z,101898.99
2018-06-30T10:20:13.619Z,101902.05
2018-06-30T10:22:42.575Z,101903.05
2018-06-30T10:25:11.301Z,101900.84
2018-06-30T10:27:40.122Z,101905.02
2018-06-30T10:30:08.942Z,101897.52
2018-06-30T10:32:37.734Z,101894.47
2018-06-30T10:35:06.708Z,101889.66
2018-06-30T10:37:35.630Z,101902.37
2018-06-30T10:40:04.613Z,101906.55
2018-06-30T10:42:33.652Z,101906.69
2018-06-30T10:45:02.615Z,101906.80
2018-06-30T10:47:31.664Z,101907.81
2018-06-30T10:50:00.967Z,101907.09
2018-06-30T10:52:29.802Z,101909.42
2018-06-30T10:54:58.786Z,101912.63
2018-06-30T10:57:27.845Z,101912.25
2018-06-30T10:59:56.655Z,101910.55
2018-06-30T11:02:26.073Z,101910.17
2018-06-30T11:04:55.253Z,101904.41
2018-06-30T11:07:24.299Z,101903.17
2018-06-30T11:09:53.090Z,101905.39
2018-06-30T11:12:21.856Z,101905.54
2018-06-30T11:14:50.982Z,101907.87
2018-06-30T11:17:19.746Z,101907.50
2018-06-30T11:19:48.556Z,101912.08
2018-06-30T11:22:17.471Z,101908.61
2018-06-30T11:24:46.260Z,101907.41
2018-06-30T11:27:15.156Z,101901.13
2018-06-30T11:29:44.199Z,101902.62
2018-06-30T11:32:13.288Z,101903.98
2018-06-30T11:34:42.609Z,101896.83
2018-06-30T11:37:12.007Z,101896.34
2018-06-30T11:39:41.191Z,101915.78
2018-06-30T11:42:10.711Z,101907.17
2018-06-30T11:44:39.754Z,101900.89
2018-06-30T11:47:08.735Z,101909.02
2018-06-30T11:49:37.922Z,101906.80
2018-06-30T11:52:07.046Z,101906.94
2018-06-30T11:54:36.112Z,101912.36
2018-06-30T11:57:05.394Z,101915.55
2018-06-30T11:59:34.538Z,101921.45
2018-06-30T12:02:03.806Z,101926.88
2018-06-30T12:04:32.947Z,101924.66
2018-06-30T12:07:01.831Z,101924.66
2018-06-30T12:09:30.647Z,101921.60
2018-06-30T12:11:59.629Z,101925.66
2018-06-30T12:14:28.428Z,101917.16
2018-06-30T12:16:57.530Z,101914.83
2018-06-30T12:19:26.491Z,101922.09
2018-06-30T12:21:55.570Z,101920.88
2018-06-30T12:24:24.522Z,101915.05
2018-06-30T12:26:53.579Z,101919.52
2018-06-30T12:29:22.716Z,101920.88
2018-06-30T12:31:51.725Z,101930.84
2018-06-30T12:34:20.976Z,101928.14
2018-06-30T12:36:50.236Z,101925.02
2018-06-30T12:39:19.474Z,101925.51
2018-06-30T12:41:48.505Z,101925.51
2018-06-30T12:44:17.637Z,101928.21
2018-06-30T12:46:47.079Z,101942.27
2018-06-30T12:49:16.282Z,101931.06
2018-06-30T12:51:45.723Z,101930.20
2018-06-30T12:54:14.647Z,101935.61
2018-06-30T12:56:43.661Z,101946.58
2018-06-30T12:59:12.868Z,101942.88
2018-06-30T13:01:42.181Z,101937.59
2018-06-30T13:04:11.159Z,101935.87
2018-06-30T13:06:40.390Z,101931.46
2018-06-30T13:09:11.853Z,101933.64
2018-06-30T13:11:41.058Z,101935.52
2018-06-30T13:14:11.336Z,101937.36
2018-06-30T13:16:40.726Z,101930.70
2018-06-30T13:19:10.353Z,101925.30
2018-06-30T13:21:39.615Z,101923.11
2018-06-30T13:24:09.302Z,101921.37
2018-06-30T13:26:38.418Z,101930.47
2018-06-30T13:29:07.629Z,101927.77
2018-06-30T13:31:36.856Z,101929.64
2018-06-30T13:34:06.428Z,101926.55
2018-06-30T13:36:35.908Z,101928.05
2018-06-30T13:39:10.531Z,101932.11
2018-06-30T13:41:40.555Z,101930.38
2018-06-30T13:44:10.035Z,101925.83
2018-06-30T13:46:39.226Z,101923.61
2018-06-30T13:49:08.458Z,101933.09
2018-06-30T13:51:37.849Z,101932.70
2018-06-30T13:54:08.252Z,101931.35
2018-06-30T13:56:37.409Z,101939.47
2018-06-30T13:59:06.669Z,101932.36
2018-06-30T14:01:36.056Z,101949.47
2018-06-30T14:04:05.298Z,101946.23
2018-06-30T14:06:34.468Z,101948.95
2018-06-30T14:09:04.211Z,101938.13
2018-06-30T14:11:33.014Z,101940.83
2018-06-30T14:14:02.210Z,101952.52
2018-06-30T14:16:31.572Z,101950.30
2018-06-30T14:19:00.837Z,101943.53
2018-06-30T14:21:30.138Z,101954.88
2018-06-30T14:23:59.555Z,101951.31
2018-06-30T14:26:28.906Z,101951.31
2018-06-30T14:28:58.701Z,101949.95
2018-06-30T14:31:28.052Z,101959.42
2018-06-30T14:33:57.419Z,101951.66
2018-06-30T14:36:26.737Z,101946.87
2018-06-30T14:38:55.840Z,101952.66
2018-06-30T14:41:25.168Z,101953.63
2018-06-30T14:43:54.813Z,101954.98
2018-06-30T14:46:24.026Z,101955.86
2018-06-30T14:48:53.206Z,101952.28
2018-06-30T14:51:22.254Z,101957.70
2018-06-30T14:53:51.478Z,101959.05
2018-06-30T14:56:20.643Z,101958.18
2018-06-30T14:58:49.658Z,101960.89
2018-06-30T15:01:19.875Z,101963.97
2018-06-30T15:03:49.055Z,101962.39
2018-06-30T15:06:18.271Z,101971.37
2018-06-30T15:08:47.351Z,101970.98
2018-06-30T15:11:16.338Z,101968.28
2018-06-30T15:13:45.411Z,101970.13
2018-06-30T15:16:14.617Z,101977.76
2018-06-30T15:18:43.817Z,101973.32
2018-06-30T15:21:12.760Z,101973.84
2018-06-30T15:23:41.876Z,101972.48
2018-06-30T15:26:10.983Z,101966.70
2018-06-30T15:28:40.297Z,101974.81
2018-06-30T15:31:09.569Z,101973.60
2018-06-30T15:33:38.487Z,101981.72
2018-06-30T15:36:09.015Z,101976.80
2018-06-30T15:38:37.978Z,101981.34
2018-06-30T15:41:07.329Z,101984.05
2018-06-30T15:43:36.579Z,101975.44
2018-06-30T15:46:05.855Z,101974.58
2018-06-30T15:48:35.063Z,101984.53
2018-06-30T15:51:04.068Z,101974.72
2018-06-30T15:53:33.406Z,101975.69
2018-06-30T15:56:02.781Z,101980.62
2018-06-30T15:58:32.245Z,101977.91
2018-06-30T16:01:01.755Z,101971.25
2018-06-30T16:03:31.150Z,101980.62
2018-06-30T16:06:00.468Z,101971.25
2018-06-30T16:08:29.758Z,101985.30
2018-06-30T16:10:59.066Z,101982.08
2018-06-30T16:13:28.172Z,101992.90
2018-06-30T16:15:57.512Z,101984.78
2018-06-30T16:18:26.792Z,101992.90
2018-06-30T16:20:56.048Z,101990.20
2018-06-30T16:23:25.572Z,101993.77
2018-06-30T16:25:54.846Z,101997.34
2018-06-30T16:28:24.101Z,101996.47
2018-06-30T16:30:53.542Z,101996.47
2018-06-30T16:33:22.858Z,101988.35
2018-06-30T16:35:51.856Z,101989.70
2018-06-30T16:38:21.062Z,101977.43
2018-06-30T16:40:50.179Z,101981.59
2018-06-30T16:43:19.268Z,101978.53
2018-06-30T16:45:49.328Z,101974.34
2018-06-30T16:48:18.655Z,101978.02
2018-06-30T16:50:47.716Z,101980.23
2018-06-30T16:53:16.977Z,101986.13
2018-06-30T16:55:46.352Z,101986.13
2018-06-30T16:58:15.463Z,101938.61
2018-06-30T17:00:44.695Z,101982.08
2018-06-30T17:03:13.825Z,101987.00
2018-06-30T17:05:42.991Z,101983.08
2018-06-30T17:08:12.066Z,101990.72
2018-06-30T17:10:41.133Z,102001.02
2018-06-30T17:13:10.294Z,101996.61
2018-06-30T17:15:40.396Z,101993.91
2018-06-30T17:18:09.602Z,102003.86
2018-06-30T17:20:38.625Z,101994.77
2018-06-30T17:23:07.863Z,102004.34
2018-06-30T17:25:37.096Z,102012.13
2018-06-30T17:28:06.446Z,102010.77
2018-06-30T17:30:35.652Z,102008.06
2018-06-30T17:33:04.724Z,102013.09
2018-06-30T17:35:34.228Z,102017.16
2018-06-30T17:38:03.384Z,102024.41
2018-06-30T17:40:32.632Z,102018.12
2018-06-30T17:43:01.850Z,102013.23
2018-06-30T17:45:30.817Z,102021.84
2018-06-30T17:48:00.008Z,102019.63
2018-06-30T17:50:30.020Z,102027.36
2018-06-30T17:52:59.479Z,102024.16
2018-06-30T17:55:28.691Z,102029.20
2018-06-30T17:57:57.824Z,102033.25
2018-06-30T18:00:26.829Z,102036.96
2018-06-30T18:02:56.057Z,102039.29
2018-06-30T18:05:25.431Z,102037.59
2018-06-30T18:07:54.674Z,102033.02
2018-06-30T18:10:23.739Z,102034.02
2018-06-30T18:12:52.975Z,102028.23
2018-06-30T18:15:22.405Z,102030.93
2018-06-30T18:17:51.655Z,102034.64
2018-06-30T18:20:20.946Z,102037.34
2018-06-30T18:22:50.216Z,102030.69
2018-06-30T18:25:19.292Z,102039.67
2018-06-30T18:27:48.414Z,102043.73
2018-06-30T18:30:17.669Z,102046.58
2018-06-30T18:32:47.068Z,102050.25
2018-06-30T18:35:16.361Z,102050.25
2018-06-30T18:37:45.736Z,102054.31
2018-06-30T18:40:15.119Z,102052.58
2018-06-30T18:42:44.344Z,102044.98
2018-06-30T18:45:13.532Z,102052.58
2018-06-30T18:47:42.587Z,102056.28
2018-06-30T18:50:11.805Z,102056.28
2018-06-30T18:52:41.066Z,102058.50
2018-06-30T18:55:10.472Z,102055.91
2018-06-30T18:57:39.777Z,102053.20
2018-06-30T19:00:09.697Z,102054.55
2018-06-30T19:02:39.038Z,102053.69
2018-06-30T19:05:08.386Z,102057.39
2018-06-30T19:07:37.511Z,102060.09
2018-06-30T19:10:07.463Z,102065.99
2018-06-30T19:12:36.817Z,102060.58
2018-06-30T19:15:06.967Z,102060.69
2018-06-30T19:17:36.307Z,102067.97
2018-06-30T19:20:06.169Z,102068.45
2018-06-30T19:22:35.547Z,102069.80
2018-06-30T19:25:05.400Z,102070.30
2018-06-30T19:27:34.634Z,102065.85
2018-06-30T19:30:03.937Z,102071.27
2018-06-30T19:32:33.074Z,102078.16
2018-06-30T19:35:02.268Z,102078.16
2018-06-30T19:37:31.268Z,102078.65
2018-06-30T19:40:00.562Z,102077.30
2018-06-30T19:42:29.919Z,102080.13
2018-06-30T19:44:59.146Z,102077.05
2018-06-30T19:47:28.249Z,102081.59
2018-06-30T19:49:57.586Z,102084.81
2018-06-30T19:52:26.863Z,102089.36
2018-06-30T19:54:56.277Z,102084.88
2018-06-30T19:57:25.526Z,102095.84
2018-06-30T19:59:54.639Z,102095.84
2018-06-30T20:02:23.922Z,102100.86
2018-06-30T20:04:53.153Z,102097.67
2018-06-30T20:07:22.300Z,102098.30
2018-06-30T20:09:51.552Z,102101.87
2018-06-30T20:12:20.822Z,102099.65
2018-06-30T20:14:49.995Z,102107.38
2018-06-30T20:17:20.472Z,102102.94
2018-06-30T20:19:50.570Z,102106.16
2018-06-30T20:22:19.717Z,102103.95
2018-06-30T20:24:48.894Z,102106.27
2018-06-30T20:27:18.031Z,102108.97
2018-06-30T20:29:47.355Z,102103.56
2018-06-30T20:32:16.712Z,102107.27
2018-06-30T20:34:45.906Z,102103.31
2018-06-30T20:37:15.218Z,102105.15
2018-06-30T20:39:44.602Z,102102.96
2018-06-30T20:42:13.691Z,102106.15
2018-06-30T20:44:42.874Z,102107.02
2018-06-30T20:47:12.094Z,102102.58
2018-06-30T20:49:41.577Z,102105.28
2018-06-30T20:52:10.770Z,102107.98
2018-06-30T20:54:40.763Z,102105.28
2018-06-30T20:57:09.921Z,102106.15
2018-06-30T20:59:39.239Z,102106.64
2018-06-30T21:02:09.624Z,102108.13
2018-06-30T21:04:38.756Z,102111.66
2018-06-30T21:07:08.010Z,102116.58
2018-06-30T21:09:37.218Z,102109.83
2018-06-30T21:12:06.464Z,102115.23
2018-06-30T21:14:35.734Z,102124.70
2018-06-30T21:17:05.149Z,102118.42
2018-06-30T21:19:34.090Z,102123.83
2018-06-30T21:22:03.187Z,102123.00
2018-06-30T21:24:32.117Z,102118.94
2018-06-30T21:27:01.237Z,102127.53
2018-06-30T21:29:30.122Z,102126.05
2018-06-30T21:31:59.278Z,102124.83
2018-06-30T21:34:28.459Z,102125.70
2018-06-30T21:36:57.632Z,102122.61
2018-06-30T21:39:26.822Z,102124.33
2018-06-30T21:41:56.046Z,102121.63
2018-06-30T21:44:25.068Z,102124.33
2018-06-30T21:46:54.099Z,102123.84
2018-06-30T21:49:23.013Z,102128.52
2018-06-30T21:51:52.020Z,102129.88
2018-06-30T21:54:21.157Z,102120.02
2018-06-30T21:56:50.292Z,102120.16
2018-06-30T21:59:19.877Z,102116.09
2018-06-30T22:01:49.047Z,102114.36
2018-06-30T22:04:18.082Z,102125.70
2018-06-30T22:06:47.085Z,102130.59
2018-06-30T22:09:16.067Z,102129.38
2018-06-30T22:11:45.182Z,102124.09
2018-06-30T22:14:14.149Z,102133.05
2018-06-30T22:16:43.243Z,102128.64
2018-06-30T22:19:12.487Z,102122.36
2018-06-30T22:21:41.677Z,102122.84
2018-06-30T22:24:10.734Z,102132.31
2018-06-30T22:26:39.962Z,102131.44
2018-06-30T22:29:09.113Z,102134.63
2018-06-30T22:31:38.212Z,102134.63
2018-06-30T22:34:07.552Z,102139.20
2018-06-30T22:36:36.685Z,102138.69
2018-06-30T22:39:08.760Z,102140.55
2018-06-30T22:41:37.826Z,102145.58
2018-06-30T22:44:07.153Z,102145.96
2018-06-30T22:46:36.316Z,102146.93
2018-06-30T22:49:05.473Z,102142.01
2018-06-30T22:51:34.610Z,102143.01
2018-06-30T22:54:03.622Z,102142.49
2018-06-30T22:56:32.853Z,102146.93
2018-06-30T22:59:01.968Z,102146.55
2018-06-30T23:01:31.319Z,102139.78
2018-06-30T23:04:00.542Z,102145.71
2018-06-30T23:06:29.740Z,102138.09
2018-06-30T23:08:58.893Z,102149.77
2018-06-30T23:11:27.892Z,102154.17
2018-06-30T23:13:56.959Z,102151.12
2018-06-30T23:16:25.974Z,102145.33
2018-06-30T23:18:55.037Z,102150.12
2018-06-30T23:21:24.135Z,102151.12
2018-06-30T23:23:53.312Z,102149.64
2018-06-30T23:26:22.828Z,102149.77
2018-06-30T23:28:51.918Z,102145.71
2018-06-30T23:31:21.104Z,102146.06
2018-06-30T23:33:50.440Z,102144.36
2018-06-30T23:36:19.529Z,102150.12
2018-06-30T23:38:48.602Z,102146.93
2018-06-30T23:41:17.765Z,102144.23
2018-06-30T23:43:46.765Z,102137.47
2018-06-30T23:46:15.763Z,102141.52
2018-06-30T23:48:44.966Z,102140.66
2018-06-30T23:51:14.164Z,102140.66
2018-06-30T23:53:43.237Z,102144.61
2018-06-30T23:56:12.544Z,102141.04
2018-06-30T23:58:41.681Z,102146.06
